createdAt,value
2022-11-05T10:37:11.360Z,10.59
2022-11-05T10:54:08.456Z,10.79
2022-11-05T10:59:11.994Z,10.90
2022-11-05T11:04:22.411Z,10.97
2022-11-05T11:09:47.857Z,11.00
2022-11-05T11:15:00.350Z,11.02
2022-11-05T11:20:22.071Z,11.11
2022-11-05T11:25:39.951Z,11.14
2022-11-05T11:30:36.409Z,11.17
2022-11-05T11:35:35.421Z,11.24
2022-11-05T11:40:34.798Z,11.26
2022-11-05T11:46:16.827Z,11.37
2022-11-05T11:51:49.739Z,11.36
2022-11-05T13:27:46.280Z,12.14
2022-11-05T16:51:49.541Z,11.48
2022-11-05T16:56:47.393Z,11.32
2022-11-05T17:01:50.324Z,11.30
2022-11-05T17:06:52.406Z,11.41
2022-11-05T17:11:49.146Z,11.27
2022-11-05T17:16:45.768Z,11.44
2022-11-05T17:21:44.623Z,11.37
2022-11-05T17:26:43.829Z,11.21
2022-11-05T17:31:40.867Z,11.22
2022-11-05T17:36:37.577Z,11.32
2022-11-05T17:41:34.301Z,11.25
2022-11-05T17:46:30.968Z,11.07
2022-11-05T17:51:27.489Z,11.21
2022-11-05T17:56:33.866Z,11.10
2022-11-05T18:01:38.871Z,11.09
2022-11-05T18:06:39.691Z,10.94
2022-11-05T18:11:37.676Z,11.06
2022-11-05T18:23:18.056Z,11.09
2022-11-05T18:28:26.985Z,10.94
2022-11-05T18:33:24.347Z,10.85
2022-11-05T18:38:23.856Z,10.95
2022-11-05T18:48:53.032Z,10.98
2022-11-05T18:59:39.759Z,10.99
2022-11-05T19:04:37.151Z,11.07
2022-11-05T19:09:43.909Z,10.95
2022-11-05T19:14:43.220Z,11.02
2022-11-05T19:19:41.607Z,11.01
2022-11-05T19:24:49.773Z,10.96
2022-11-05T19:59:52.021Z,10.90
2022-11-05T20:04:52.470Z,10.92
2022-11-05T20:09:51.203Z,11.09
2022-11-05T20:14:52.143Z,11.08
2022-11-05T20:19:57.653Z,11.06
2022-11-05T20:25:10.956Z,10.92
2022-11-05T20:30:13.059Z,10.98
2022-11-05T20:35:22.935Z,10.83
